Česky Dansk Deutsch English Español Suomi Français Magyar Italiano Nederlands norsk Polski Português svenska Türkçe

 

Het Weer

Santa Ana (Bolivië)

23:00, 29 juli 2016 (GMT)

NWNNE
WE
SWSSE
Home            
Santa Ana San Joaquin San Ignacio De Moxos Trinidad Magdalena San Borja Reyes Rurrenabaque Riberalta Guayaramerin Ascencion De Guarayos Apolo Cochabamba San Javier La Paz / Alto Puerto Maldonado Concepcion Cobija Rio Branco Viru-Viru Oruro Santa Cruz / El Trompillo Juliaca

Om een weerknop op uw website of weblog te plaatsen, copieer onderstaande code en plak die in uw pagina. In het eerste vakje staat HTML-code, in het tweede vakje UBB-code.


Add to Google

Details

Visibility: 8000 m, 8.0 km, 26247 ft, 5.0 miles
Temperature:29°C, 84°F
Gefühlte Temperatur:29°C, 84°F
Dew-point:16°C, 61°F
Atmospheric pressure:1011 hPa, 758.3 mmHg, 29.85 inHg, 0.998 atm
Relative humidity:45.4 %
METAR:SLSA 292300Z 00000KT 8000 NSC 29/16 Q1011

Snelkoppelingen

Actuele weersinformatie van de hele wereld. Voeg locaties toe met het plus (+) symbool. Deze snelkoppelingen kunnen worden toegevoegd aan Google.

Lid van de Technetium groep

website free tracking
StatCounter NetStat W3C Validator

24-11-2020 10:01:55
astro.technetium.be money.technetium.be phote.technetium.be tafeltennistafel.technetium.be www.ligfiets.net